sensor_id;sensor_type;location;lat;lon;timestamp;pressure;altitude;pressure_sealevel;temperature;humidity
69879;BME280;57161;43.136;24.706;2022-07-29T00:01:20;99240.69;;;22.43;70.56
69879;BME280;57161;43.136;24.706;2022-07-29T00:03:46;99247.00;;;22.41;70.90
69879;BME280;57161;43.136;24.706;2022-07-29T00:06:11;99236.06;;;22.24;71.15
69879;BME280;57161;43.136;24.706;2022-07-29T00:08:37;99246.94;;;22.28;71.41
69879;BME280;57161;43.136;24.706;2022-07-29T00:11:02;99236.28;;;22.28;71.37
69879;BME280;57161;43.136;24.706;2022-07-29T00:13:28;99226.53;;;22.31;70.69
69879;BME280;57161;43.136;24.706;2022-07-29T00:15:54;99230.66;;;22.42;70.68
69879;BME280;57161;43.136;24.706;2022-07-29T00:18:19;99222.00;;;22.40;70.54
69879;BME280;57161;43.136;24.706;2022-07-29T00:20:45;99237.78;;;22.55;69.87
69879;BME280;57161;43.136;24.706;2022-07-29T00:23:10;99241.13;;;22.51;70.11
69879;BME280;57161;43.136;24.706;2022-07-29T00:25:36;99227.31;;;22.45;69.86
69879;BME280;57161;43.136;24.706;2022-07-29T00:28:01;99219.91;;;22.40;69.67
69879;BME280;57161;43.136;24.706;2022-07-29T00:30:27;99231.75;;;22.49;69.96
69879;BME280;57161;43.136;24.706;2022-07-29T00:32:52;99215.38;;;22.35;69.60
69879;BME280;57161;43.136;24.706;2022-07-29T00:35:18;99228.56;;;22.42;69.80
69879;BME280;57161;43.136;24.706;2022-07-29T00:38:02;99223.38;;;22.39;69.75
69879;BME280;57161;43.136;24.706;2022-07-29T00:40:27;99224.16;;;22.28;69.93
69879;BME280;57161;43.136;24.706;2022-07-29T00:42:53;99239.78;;;22.27;70.37
69879;BME280;57161;43.136;24.706;2022-07-29T00:45:19;99224.13;;;22.14;70.53
69879;BME280;57161;43.136;24.706;2022-07-29T00:47:45;99205.50;;;21.99;70.62
69879;BME280;57161;43.136;24.706;2022-07-29T00:50:12;99218.72;;;22.06;70.73
69879;BME280;57161;43.136;24.706;2022-07-29T00:52:39;99220.44;;;22.00;71.17
69879;BME280;57161;43.136;24.706;2022-07-29T00:55:06;99217.88;;;21.92;71.63
69879;BME280;57161;43.136;24.706;2022-07-29T00:57:34;99222.47;;;21.85;72.25
69879;BME280;57161;43.136;24.706;2022-07-29T00:59:59;99212.84;;;21.79;72.50
69879;BME280;57161;43.136;24.706;2022-07-29T01:02:25;99213.63;;;21.68;72.88
69879;BME280;57161;43.136;24.706;2022-07-29T01:04:51;99220.19;;;21.58;73.11
69879;BME280;57161;43.136;24.706;2022-07-29T01:07:17;99212.53;;;21.61;73.27
69879;BME280;57161;43.136;24.706;2022-07-29T01:09:44;99213.25;;;21.62;73.35
69879;BME280;57161;43.136;24.706;2022-07-29T01:12:17;99211.16;;;21.62;73.43
69879;BME280;57161;43.136;24.706;2022-07-29T01:15:03;99211.44;;;21.54;73.35
69879;BME280;57161;43.136;24.706;2022-07-29T01:20:07;99219.63;;;21.48;73.31
69879;BME280;57161;43.136;24.706;2022-07-29T01:31:16;99204.38;;;21.55;72.70
69879;BME280;57161;43.136;24.706;2022-07-29T01:33:45;99208.38;;;21.50;72.99
69879;BME280;57161;43.136;24.706;2022-07-29T01:36:21;99199.44;;;21.56;72.79
69879;BME280;57161;43.136;24.706;2022-07-29T01:39:02;99195.38;;;21.47;72.71
69879;BME280;57161;43.136;24.706;2022-07-29T01:41:31;99204.50;;;21.57;72.29
69879;BME280;57161;43.136;24.706;2022-07-29T01:44:15;99203.03;;;21.56;72.43
69879;BME280;57161;43.136;24.706;2022-07-29T01:46:50;99204.25;;;21.65;72.23
69879;BME280;57161;43.136;24.706;2022-07-29T01:49:23;99206.69;;;21.71;72.00
69879;BME280;57161;43.136;24.706;2022-07-29T01:51:52;99198.28;;;21.73;71.65
69879;BME280;57161;43.136;24.706;2022-07-29T01:54:35;99204.44;;;21.81;71.81
69879;BME280;57161;43.136;24.706;2022-07-29T01:57:04;99178.50;;;21.75;71.35
69879;BME280;57161;43.136;24.706;2022-07-29T01:59:33;99196.16;;;21.85;70.98
69879;BME280;57161;43.136;24.706;2022-07-29T02:02:01;99198.25;;;21.84;70.84
69879;BME280;57161;43.136;24.706;2022-07-29T02:04:28;99207.56;;;21.73;71.40
69879;BME280;57161;43.136;24.706;2022-07-29T02:06:56;99199.94;;;21.64;71.45
69879;BME280;57161;43.136;24.706;2022-07-29T02:09:25;99197.22;;;21.54;71.68
69879;BME280;57161;43.136;24.706;2022-07-29T02:11:53;99207.75;;;21.40;72.31
69879;BME280;57161;43.136;24.706;2022-07-29T02:14:21;99201.94;;;21.38;72.44
69879;BME280;57161;43.136;24.706;2022-07-29T02:16:50;99195.66;;;21.28;73.17
69879;BME280;57161;43.136;24.706;2022-07-29T02:19:18;99188.50;;;21.04;73.19
69879;BME280;57161;43.136;24.706;2022-07-29T02:21:45;99201.47;;;21.07;73.57
69879;BME280;57161;43.136;24.706;2022-07-29T02:24:12;99184.19;;;20.91;73.85
69879;BME280;57161;43.136;24.706;2022-07-29T02:26:41;99182.44;;;20.97;73.70
69879;BME280;57161;43.136;24.706;2022-07-29T02:29:09;99201.22;;;21.03;73.79
69879;BME280;57161;43.136;24.706;2022-07-29T02:31:37;99202.59;;;21.02;73.73
69879;BME280;57161;43.136;24.706;2022-07-29T02:34:05;99179.13;;;20.89;73.88
69879;BME280;57161;43.136;24.706;2022-07-29T02:36:32;99195.28;;;20.98;74.06
69879;BME280;57161;43.136;24.706;2022-07-29T02:38:59;99191.97;;;20.90;74.12
69879;BME280;57161;43.136;24.706;2022-07-29T02:41:32;99194.06;;;20.90;74.36
69879;BME280;57161;43.136;24.706;2022-07-29T02:44:05;99196.03;;;20.87;74.51
69879;BME280;57161;43.136;24.706;2022-07-29T02:46:34;99196.03;;;20.87;74.31
69879;BME280;57161;43.136;24.706;2022-07-29T02:49:13;99199.34;;;20.95;73.95
69879;BME280;57161;43.136;24.706;2022-07-29T02:51:53;99204.06;;;21.03;73.73
69879;BME280;57161;43.136;24.706;2022-07-29T02:54:41;99206.88;;;21.14;73.41
69879;BME280;57161;43.136;24.706;2022-07-29T02:57:18;99210.97;;;21.23;73.10
69879;BME280;57161;43.136;24.706;2022-07-29T02:59:45;99194.41;;;21.19;72.59
69879;BME280;57161;43.136;24.706;2022-07-29T03:02:13;99212.69;;;21.28;72.64
69879;BME280;57161;43.136;24.706;2022-07-29T03:04:41;99212.69;;;21.28;72.43
69879;BME280;57161;43.136;24.706;2022-07-29T03:07:09;99221.72;;;21.24;72.81
69879;BME280;57161;43.136;24.706;2022-07-29T03:09:36;99222.22;;;21.21;72.68
69879;BME280;57161;43.136;24.706;2022-07-29T03:12:03;99219.75;;;21.15;73.06
69879;BME280;57161;43.136;24.706;2022-07-29T03:14:30;99212.19;;;20.96;73.16
69879;BME280;57161;43.136;24.706;2022-07-29T03:16:56;99237.75;;;20.96;73.73
69879;BME280;57161;43.136;24.706;2022-07-29T03:19:22;99248.63;;;20.88;73.70
69879;BME280;57161;43.136;24.706;2022-07-29T03:21:48;99238.38;;;20.83;74.01
69879;BME280;57161;43.136;24.706;2022-07-29T03:24:34;99241.44;;;20.76;74.31
69879;BME280;57161;43.136;24.706;2022-07-29T03:27:01;99243.53;;;20.75;74.30
69879;BME280;57161;43.136;24.706;2022-07-29T03:29:27;99254.31;;;20.88;74.08
69879;BME280;57161;43.136;24.706;2022-07-29T03:31:53;99237.66;;;20.83;73.94
69879;BME280;57161;43.136;24.706;2022-07-29T03:34:19;99247.50;;;20.93;73.47
69879;BME280;57161;43.136;24.706;2022-07-29T03:36:44;99251.84;;;20.94;73.61
69879;BME280;57161;43.136;24.706;2022-07-29T03:39:11;99256.66;;;20.92;73.70
69879;BME280;57161;43.136;24.706;2022-07-29T03:41:40;99241.47;;;20.87;73.63
69879;BME280;57161;43.136;24.706;2022-07-29T03:44:07;99239.97;;;20.98;73.30
69879;BME280;57161;43.136;24.706;2022-07-29T03:46:35;99251.97;;;21.08;73.49
69879;BME280;57161;43.136;24.706;2022-07-29T03:49:02;99250.25;;;21.03;73.48
69879;BME280;57161;43.136;24.706;2022-07-29T03:51:29;99251.72;;;21.04;73.54
69879;BME280;57161;43.136;24.706;2022-07-29T03:53:55;99255.06;;;21.12;73.36
69879;BME280;57161;43.136;24.706;2022-07-29T03:56:22;99263.94;;;21.07;73.33
69879;BME280;57161;43.136;24.706;2022-07-29T03:58:52;99252.97;;;21.01;73.63
69879;BME280;57161;43.136;24.706;2022-07-29T04:01:18;99249.50;;;21.03;73.50
69879;BME280;57161;43.136;24.706;2022-07-29T04:03:45;99254.69;;;21.06;73.40
69879;BME280;57161;43.136;24.706;2022-07-29T04:06:11;99250.72;;;21.11;73.22
69879;BME280;57161;43.136;24.706;2022-07-29T04:08:37;99250.72;;;21.11;73.50
69879;BME280;57161;43.136;24.706;2022-07-29T04:11:04;99254.06;;;21.19;73.04
69879;BME280;57161;43.136;24.706;2022-07-29T04:13:30;99252.22;;;21.24;73.07
69879;BME280;57161;43.136;24.706;2022-07-29T04:15:56;99253.84;;;21.27;72.66
69879;BME280;57161;43.136;24.706;2022-07-29T04:18:21;99271.41;;;21.35;72.62
69879;BME280;57161;43.136;24.706;2022-07-29T04:20:47;99261.97;;;21.44;72.31
69879;BME280;57161;43.136;24.706;2022-07-29T04:23:13;99218.25;;;21.14;72.07
69879;BME280;57161;43.136;24.706;2022-07-29T04:25:39;99273.84;;;21.64;71.86
69879;BME280;57161;43.136;24.706;2022-07-29T04:28:05;99272.59;;;21.67;71.24
69879;BME280;57161;43.136;24.706;2022-07-29T04:30:32;99272.84;;;21.71;71.27
69879;BME280;57161;43.136;24.706;2022-07-29T04:32:59;99268.00;;;21.74;71.48
69879;BME280;57161;43.136;24.706;2022-07-29T04:35:26;99265.66;;;21.82;71.10
69879;BME280;57161;43.136;24.706;2022-07-29T04:37:52;99252.66;;;21.79;70.87
69879;BME280;57161;43.136;24.706;2022-07-29T04:40:18;99268.69;;;21.98;70.75
69879;BME280;57161;43.136;24.706;2022-07-29T04:42:43;99258.16;;;22.00;70.80
69879;BME280;57161;43.136;24.706;2022-07-29T04:45:09;99264.56;;;22.12;70.42
69879;BME280;57161;43.136;24.706;2022-07-29T04:47:34;99264.94;;;22.19;70.25
69879;BME280;57161;43.136;24.706;2022-07-29T04:50:00;99255.84;;;22.34;69.79
69879;BME280;57161;43.136;24.706;2022-07-29T04:52:26;99246.78;;;22.37;69.12
69879;BME280;57161;43.136;24.706;2022-07-29T04:54:51;99256.00;;;22.50;68.85
69879;BME280;57161;43.136;24.706;2022-07-29T04:57:16;99262.41;;;22.75;68.37
69879;BME280;57161;43.136;24.706;2022-07-29T04:59:42;99267.94;;;22.85;67.87
69879;BME280;57161;43.136;24.706;2022-07-29T05:02:09;99266.06;;;22.90;67.78
69879;BME280;57161;43.136;24.706;2022-07-29T05:04:35;99265.03;;;22.97;67.61
69879;BME280;57161;43.136;24.706;2022-07-29T05:07:00;99265.97;;;23.01;67.41
69879;BME280;57161;43.136;24.706;2022-07-29T05:09:26;99256.19;;;23.18;66.92
69879;BME280;57161;43.136;24.706;2022-07-29T05:11:51;99262.19;;;23.38;66.67
69879;BME280;57161;43.136;24.706;2022-07-29T05:14:17;99270.22;;;23.55;66.10
69879;BME280;57161;43.136;24.706;2022-07-29T05:16:42;99273.19;;;23.57;66.12
69879;BME280;57161;43.136;24.706;2022-07-29T05:19:08;99265.81;;;23.66;65.85
69879;BME280;57161;43.136;24.706;2022-07-29T05:21:34;99266.00;;;23.70;66.05
69879;BME280;57161;43.136;24.706;2022-07-29T05:24:00;99274.56;;;23.70;66.01
69879;BME280;57161;43.136;24.706;2022-07-29T05:26:25;99277.22;;;23.80;65.44
69879;BME280;57161;43.136;24.706;2022-07-29T05:28:51;99276.56;;;23.81;65.60
69879;BME280;57161;43.136;24.706;2022-07-29T05:31:17;99281.19;;;23.88;65.35
69879;BME280;57161;43.136;24.706;2022-07-29T05:33:42;99284.16;;;23.90;65.05
69879;BME280;57161;43.136;24.706;2022-07-29T05:36:08;99270.13;;;23.81;65.24
69879;BME280;57161;43.136;24.706;2022-07-29T05:38:35;99285.22;;;23.97;65.42
69879;BME280;57161;43.136;24.706;2022-07-29T05:41:00;99271.25;;;23.89;65.18
69879;BME280;57161;43.136;24.706;2022-07-29T05:43:29;99278.34;;;23.75;65.80
69879;BME280;57161;43.136;24.706;2022-07-29T05:45:55;99289.84;;;23.90;65.64
69879;BME280;57161;43.136;24.706;2022-07-29T05:48:21;99266.94;;;23.88;65.44
69879;BME280;57161;43.136;24.706;2022-07-29T05:50:46;99295.16;;;23.96;65.16
69879;BME280;57161;43.136;24.706;2022-07-29T05:53:12;99288.25;;;24.01;65.53
69879;BME280;57161;43.136;24.706;2022-07-29T05:55:37;99289.09;;;24.04;65.18
69879;BME280;57161;43.136;24.706;2022-07-29T05:58:03;99291.91;;;24.17;64.76
69879;BME280;57161;43.136;24.706;2022-07-29T06:00:28;99291.69;;;24.27;64.68
69879;BME280;57161;43.136;24.706;2022-07-29T06:02:54;99284.59;;;24.28;64.47
69879;BME280;57161;43.136;24.706;2022-07-29T06:05:20;99295.47;;;24.45;63.94
69879;BME280;57161;43.136;24.706;2022-07-29T06:07:45;99293.38;;;24.62;63.29
69879;BME280;57161;43.136;24.706;2022-07-29T06:10:11;99298.31;;;24.75;63.31
69879;BME280;57161;43.136;24.706;2022-07-29T06:12:36;99306.78;;;24.89;62.71
69879;BME280;57161;43.136;24.706;2022-07-29T06:15:02;99302.00;;;24.93;62.15
69879;BME280;57161;43.136;24.706;2022-07-29T06:17:28;99279.72;;;24.90;61.69
69879;BME280;57161;43.136;24.706;2022-07-29T06:19:53;99310.25;;;25.01;61.91
69879;BME280;57161;43.136;24.706;2022-07-29T06:22:18;99304.09;;;25.06;62.00
69879;BME280;57161;43.136;24.706;2022-07-29T06:24:44;99288.69;;;25.13;61.47
69879;BME280;57161;43.136;24.706;2022-07-29T06:27:10;99304.19;;;25.40;60.35
69879;BME280;57161;43.136;24.706;2022-07-29T06:29:36;99304.97;;;25.58;60.70
69879;BME280;57161;43.136;24.706;2022-07-29T06:32:02;99298.88;;;25.66;59.77
69879;BME280;57161;43.136;24.706;2022-07-29T06:34:28;99296.97;;;26.04;59.46
69879;BME280;57161;43.136;24.706;2022-07-29T06:36:53;99294.16;;;26.40;57.95
69879;BME280;57161;43.136;24.706;2022-07-29T06:39:19;99300.53;;;26.74;57.14
69879;BME280;57161;43.136;24.706;2022-07-29T06:41:48;99302.91;;;26.99;56.44
69879;BME280;57161;43.136;24.706;2022-07-29T06:44:16;99307.28;;;27.00;55.94
69879;BME280;57161;43.136;24.706;2022-07-29T06:46:42;99301.69;;;27.22;55.65
69879;BME280;57161;43.136;24.706;2022-07-29T06:49:07;99296.53;;;27.58;54.83
69879;BME280;57161;43.136;24.706;2022-07-29T06:51:33;99293.28;;;27.88;54.00
69879;BME280;57161;43.136;24.706;2022-07-29T06:53:59;99283.16;;;28.06;54.26
69879;BME280;57161;43.136;24.706;2022-07-29T06:56:26;99283.22;;;28.08;53.23
69879;BME280;57161;43.136;24.706;2022-07-29T06:58:51;99283.75;;;28.25;53.37
69879;BME280;57161;43.136;24.706;2022-07-29T07:01:17;99274.91;;;28.38;52.90
69879;BME280;57161;43.136;24.706;2022-07-29T07:03:42;99274.50;;;28.48;52.54
69879;BME280;57161;43.136;24.706;2022-07-29T07:06:08;99268.94;;;28.54;52.12
69879;BME280;57161;43.136;24.706;2022-07-29T07:08:33;99276.88;;;28.80;51.84
69879;BME280;57161;43.136;24.706;2022-07-29T07:10:59;99276.69;;;28.95;51.54
69879;BME280;57161;43.136;24.706;2022-07-29T07:13:25;99286.47;;;29.10;51.06
69879;BME280;57161;43.136;24.706;2022-07-29T07:15:51;99275.34;;;28.98;51.27
69879;BME280;57161;43.136;24.706;2022-07-29T07:18:17;99277.97;;;29.14;51.56
69879;BME280;57161;43.136;24.706;2022-07-29T07:20:43;99281.16;;;29.50;50.62
69879;BME280;57161;43.136;24.706;2022-07-29T07:23:09;99280.66;;;29.58;50.10
69879;BME280;57161;43.136;24.706;2022-07-29T07:25:35;99267.91;;;29.65;50.07
69879;BME280;57161;43.136;24.706;2022-07-29T07:28:01;99270.13;;;29.95;50.18
69879;BME280;57161;43.136;24.706;2022-07-29T07:30:27;99278.75;;;30.23;49.32
69879;BME280;57161;43.136;24.706;2022-07-29T07:32:53;99268.59;;;30.20;48.78
69879;BME280;57161;43.136;24.706;2022-07-29T07:35:19;99270.16;;;30.25;48.36
69879;BME280;57161;43.136;24.706;2022-07-29T07:37:44;99270.72;;;30.47;48.59
69879;BME280;57161;43.136;24.706;2022-07-29T07:40:11;99252.00;;;30.48;47.80
69879;BME280;57161;43.136;24.706;2022-07-29T07:42:37;99265.97;;;30.60;47.33
69879;BME280;57161;43.136;24.706;2022-07-29T07:45:03;99274.72;;;30.64;46.96
69879;BME280;57161;43.136;24.706;2022-07-29T07:47:30;99276.28;;;30.69;47.48
69879;BME280;57161;43.136;24.706;2022-07-29T07:49:55;99269.09;;;30.70;47.09
69879;BME280;57161;43.136;24.706;2022-07-29T07:52:21;99283.88;;;30.86;47.35
69879;BME280;57161;43.136;24.706;2022-07-29T07:54:47;99269.50;;;30.88;47.26
69879;BME280;57161;43.136;24.706;2022-07-29T07:57:14;99278.34;;;30.96;47.27
69879;BME280;57161;43.136;24.706;2022-07-29T07:59:40;99274.09;;;31.01;46.78
69879;BME280;57161;43.136;24.706;2022-07-29T08:02:06;99270.41;;;30.97;47.03
69879;BME280;57161;43.136;24.706;2022-07-29T08:04:32;99271.19;;;30.99;47.09
69879;BME280;57161;43.136;24.706;2022-07-29T08:06:58;99268.44;;;30.73;47.13
69879;BME280;57161;43.136;24.706;2022-07-29T08:09:25;99267.22;;;30.53;48.08
69879;BME280;57161;43.136;24.706;2022-07-29T08:11:52;99262.38;;;30.61;47.58
69879;BME280;57161;43.136;24.706;2022-07-29T08:14:17;99267.44;;;30.61;47.56
69879;BME280;57161;43.136;24.706;2022-07-29T08:16:43;99263.31;;;30.70;47.29
69879;BME280;57161;43.136;24.706;2022-07-29T08:19:09;99261.97;;;30.75;46.97
69879;BME280;57161;43.136;24.706;2022-07-29T08:21:34;99270.63;;;30.43;47.20
69879;BME280;57161;43.136;24.706;2022-07-29T08:24:00;99268.47;;;30.43;47.08
69879;BME280;57161;43.136;24.706;2022-07-29T08:26:44;99257.13;;;30.52;47.63
69879;BME280;57161;43.136;24.706;2022-07-29T08:29:10;99256.97;;;30.45;47.08
69879;BME280;57161;43.136;24.706;2022-07-29T08:31:36;99239.31;;;30.61;46.21
69879;BME280;57161;43.136;24.706;2022-07-29T08:34:03;99254.88;;;30.78;46.15
69879;BME280;57161;43.136;24.706;2022-07-29T08:36:29;99265.41;;;30.99;45.79
69879;BME280;57161;43.136;24.706;2022-07-29T08:38:55;99259.19;;;31.11;45.40
69879;BME280;57161;43.136;24.706;2022-07-29T08:41:20;99262.03;;;31.09;44.39
69879;BME280;57161;43.136;24.706;2022-07-29T08:43:47;99255.63;;;31.15;44.50
69879;BME280;57161;43.136;24.706;2022-07-29T08:46:13;99249.28;;;31.20;45.01
69879;BME280;57161;43.136;24.706;2022-07-29T08:48:40;99256.38;;;31.15;44.33
69879;BME280;57161;43.136;24.706;2022-07-29T08:51:07;99240.84;;;30.96;44.40
69879;BME280;57161;43.136;24.706;2022-07-29T08:53:33;99249.06;;;31.10;44.14
69879;BME280;57161;43.136;24.706;2022-07-29T08:55:59;99253.91;;;31.35;43.60
69879;BME280;57161;43.136;24.706;2022-07-29T08:58:25;99252.25;;;31.62;42.97
69879;BME280;57161;43.136;24.706;2022-07-29T09:00:54;99243.25;;;31.82;41.48
69879;BME280;57161;43.136;24.706;2022-07-29T09:03:22;99251.13;;;31.78;41.57
69879;BME280;57161;43.136;24.706;2022-07-29T09:05:48;99246.09;;;31.78;41.70
69879;BME280;57161;43.136;24.706;2022-07-29T09:08:15;99238.34;;;31.53;41.03
69879;BME280;57161;43.136;24.706;2022-07-29T09:10:41;99246.72;;;31.36;41.34
69879;BME280;57161;43.136;24.706;2022-07-29T09:13:07;99240.41;;;31.46;41.55
69879;BME280;57161;43.136;24.706;2022-07-29T09:15:33;99242.13;;;31.61;41.02
69879;BME280;57161;43.136;24.706;2022-07-29T09:17:59;99236.31;;;31.57;40.05
69879;BME280;57161;43.136;24.706;2022-07-29T09:20:26;99233.63;;;31.70;38.60
69879;BME280;57161;43.136;24.706;2022-07-29T09:23:12;99232.81;;;31.65;40.06
69879;BME280;57161;43.136;24.706;2022-07-29T09:25:39;99227.72;;;31.61;40.10
69879;BME280;57161;43.136;24.706;2022-07-29T09:28:16;99220.94;;;31.47;39.64
69879;BME280;57161;43.136;24.706;2022-07-29T09:30:56;99222.59;;;31.58;39.23
69879;BME280;57161;43.136;24.706;2022-07-29T09:33:32;99229.97;;;31.67;39.38
69879;BME280;57161;43.136;24.706;2022-07-29T09:36:06;99217.28;;;31.84;38.88
69879;BME280;57161;43.136;24.706;2022-07-29T09:38:33;99213.16;;;31.95;39.38
69879;BME280;57161;43.136;24.706;2022-07-29T09:41:00;99206.94;;;32.13;38.92
69879;BME280;57161;43.136;24.706;2022-07-29T09:43:26;99213.06;;;32.36;38.16
69879;BME280;57161;43.136;24.706;2022-07-29T09:45:52;99190.06;;;32.44;37.98
69879;BME280;57161;43.136;24.706;2022-07-29T09:48:20;99203.28;;;32.57;38.47
69879;BME280;57161;43.136;24.706;2022-07-29T09:50:46;99201.22;;;32.66;37.29
69879;BME280;57161;43.136;24.706;2022-07-29T09:53:44;99204.97;;;32.76;36.68
69879;BME280;57161;43.136;24.706;2022-07-29T09:56:09;99206.53;;;32.83;37.45
69879;BME280;57161;43.136;24.706;2022-07-29T09:58:35;99193.66;;;32.93;37.74
69879;BME280;57161;43.136;24.706;2022-07-29T10:01:01;99185.66;;;32.91;37.43
69879;BME280;57161;43.136;24.706;2022-07-29T10:03:27;99189.50;;;33.10;38.05
69879;BME280;57161;43.136;24.706;2022-07-29T10:06:10;99177.06;;;32.99;37.55
69879;BME280;57161;43.136;24.706;2022-07-29T10:08:36;99190.81;;;32.99;36.63
69879;BME280;57161;43.136;24.706;2022-07-29T10:11:14;99185.50;;;32.79;37.48
69879;BME280;57161;43.136;24.706;2022-07-29T10:13:41;99190.75;;;32.93;37.41
69879;BME280;57161;43.136;24.706;2022-07-29T10:16:06;99192.81;;;32.86;37.22
69879;BME280;57161;43.136;24.706;2022-07-29T10:18:32;99188.66;;;33.01;37.25
69879;BME280;57161;43.136;24.706;2022-07-29T10:20:58;99180.88;;;33.16;37.42
69879;BME280;57161;43.136;24.706;2022-07-29T10:23:27;99174.16;;;32.97;37.60
69879;BME280;57161;43.136;24.706;2022-07-29T10:25:53;99174.84;;;32.94;37.41
69879;BME280;57161;43.136;24.706;2022-07-29T10:28:19;99162.50;;;32.37;37.97
69879;BME280;57161;43.136;24.706;2022-07-29T10:30:45;99165.31;;;32.31;38.60
69879;BME280;57161;43.136;24.706;2022-07-29T10:38:52;99162.19;;;32.67;37.97
69879;BME280;57161;43.136;24.706;2022-07-29T10:41:39;99165.34;;;32.85;38.17
69879;BME280;57161;43.136;24.706;2022-07-29T10:44:21;99158.91;;;32.91;38.09
69879;BME280;57161;43.136;24.706;2022-07-29T10:46:48;99150.34;;;33.03;38.17
69879;BME280;57161;43.136;24.706;2022-07-29T10:52:03;99146.06;;;33.08;37.43
69879;BME280;57161;43.136;24.706;2022-07-29T10:59:49;99121.84;;;33.41;36.72
69879;BME280;57161;43.136;24.706;2022-07-29T11:05:13;99124.91;;;33.62;36.33
69879;BME280;57161;43.136;24.706;2022-07-29T11:10:52;99129.31;;;33.71;35.97
69879;BME280;57161;43.136;24.706;2022-07-29T11:16:09;99119.91;;;33.68;35.33
69879;BME280;57161;43.136;24.706;2022-07-29T11:18:34;99119.13;;;33.68;35.08
69879;BME280;57161;43.136;24.706;2022-07-29T11:21:00;99108.13;;;33.46;34.89
69879;BME280;57161;43.136;24.706;2022-07-29T11:23:30;99120.81;;;33.89;35.21
69879;BME280;57161;43.136;24.706;2022-07-29T11:31:44;99106.31;;;33.87;34.96
69879;BME280;57161;43.136;24.706;2022-07-29T11:34:28;99117.81;;;33.81;34.92
69879;BME280;57161;43.136;24.706;2022-07-29T11:37:23;99105.00;;;34.11;34.92
69879;BME280;57161;43.136;24.706;2022-07-29T11:45:01;99108.94;;;34.74;33.06
69879;BME280;57161;43.136;24.706;2022-07-29T11:47:30;99099.53;;;34.82;33.14
69879;BME280;57161;43.136;24.706;2022-07-29T11:49:58;99101.75;;;34.94;33.11
69879;BME280;57161;43.136;24.706;2022-07-29T11:52:32;99095.16;;;34.77;32.63
69879;BME280;57161;43.136;24.706;2022-07-29T11:55:01;99086.50;;;34.85;32.46
69879;BME280;57161;43.136;24.706;2022-07-29T11:57:28;99078.56;;;35.10;32.44
69879;BME280;57161;43.136;24.706;2022-07-29T11:59:53;99076.44;;;35.33;31.85
69879;BME280;57161;43.136;24.706;2022-07-29T12:02:20;99078.66;;;35.48;31.50
69879;BME280;57161;43.136;24.706;2022-07-29T12:07:15;99076.47;;;35.55;31.35
69879;BME280;57161;43.136;24.706;2022-07-29T12:09:49;99059.00;;;35.02;32.55
69879;BME280;57161;43.136;24.706;2022-07-29T12:12:16;99074.13;;;34.74;33.18
69879;BME280;57161;43.136;24.706;2022-07-29T12:14:42;99076.31;;;34.82;33.60
69879;BME280;57161;43.136;24.706;2022-07-29T12:17:34;99074.22;;;35.13;32.69
69879;BME280;57161;43.136;24.706;2022-07-29T12:20:03;99071.34;;;35.21;32.18
69879;BME280;57161;43.136;24.706;2022-07-29T12:22:29;99079.34;;;35.43;32.32
69879;BME280;57161;43.136;24.706;2022-07-29T12:25:01;99076.44;;;35.71;32.01
69879;BME280;57161;43.136;24.706;2022-07-29T12:27:27;99060.44;;;35.99;31.75
69879;BME280;57161;43.136;24.706;2022-07-29T12:29:56;99044.34;;;36.28;31.25
69879;BME280;57161;43.136;24.706;2022-07-29T12:32:22;99051.53;;;36.56;31.04
69879;BME280;57161;43.136;24.706;2022-07-29T12:34:47;99051.47;;;36.68;31.02
69879;BME280;57161;43.136;24.706;2022-07-29T12:37:13;99053.66;;;36.67;30.72
69879;BME280;57161;43.136;24.706;2022-07-29T12:39:39;99043.44;;;36.71;30.67
69879;BME280;57161;43.136;24.706;2022-07-29T12:42:15;99047.16;;;36.55;31.41
69879;BME280;57161;43.136;24.706;2022-07-29T12:47:10;99037.09;;;36.33;30.51
69879;BME280;57161;43.136;24.706;2022-07-29T12:49:36;99031.25;;;36.27;31.23
69879;BME280;57161;43.136;24.706;2022-07-29T12:52:31;99042.25;;;36.06;31.40
69879;BME280;57161;43.136;24.706;2022-07-29T12:54:57;99022.69;;;35.81;31.41
69879;BME280;57161;43.136;24.706;2022-07-29T12:57:23;99027.06;;;35.61;31.68
69879;BME280;57161;43.136;24.706;2022-07-29T13:02:33;99031.41;;;35.74;31.67
69879;BME280;57161;43.136;24.706;2022-07-29T13:05:00;99032.16;;;35.55;31.74
69879;BME280;57161;43.136;24.706;2022-07-29T13:07:28;99022.72;;;35.38;32.60
69879;BME280;57161;43.136;24.706;2022-07-29T13:09:55;99026.34;;;35.22;32.92
69879;BME280;57161;43.136;24.706;2022-07-29T13:12:34;99015.44;;;35.06;32.70
69879;BME280;57161;43.136;24.706;2022-07-29T13:14:59;99016.88;;;35.13;32.31
69879;BME280;57161;43.136;24.706;2022-07-29T13:17:26;99024.88;;;35.13;32.75
69879;BME280;57161;43.136;24.706;2022-07-29T13:20:07;99017.63;;;35.10;32.50
69879;BME280;57161;43.136;24.706;2022-07-29T13:22:38;99011.81;;;35.20;32.15
69879;BME280;57161;43.136;24.706;2022-07-29T13:25:04;99011.09;;;35.40;32.00
69879;BME280;57161;43.136;24.706;2022-07-29T13:27:33;98996.59;;;35.17;32.10
69879;BME280;57161;43.136;24.706;2022-07-29T13:30:00;99016.19;;;35.64;31.59
69879;BME280;57161;43.136;24.706;2022-07-29T13:32:28;99003.75;;;36.00;31.09
69879;BME280;57161;43.136;24.706;2022-07-29T13:34:58;99005.16;;;36.09;30.62
69879;BME280;57161;43.136;24.706;2022-07-29T13:37:24;98998.63;;;36.13;29.57
69879;BME280;57161;43.136;24.706;2022-07-29T13:39:51;98996.50;;;35.93;29.86
69879;BME280;57161;43.136;24.706;2022-07-29T13:42:17;98997.88;;;36.16;30.48
69879;BME280;57161;43.136;24.706;2022-07-29T13:44:43;98986.91;;;36.29;28.97
69879;BME280;57161;43.136;24.706;2022-07-29T13:47:09;98998.56;;;36.21;29.14